Time,TemperatureF,DewpointF,PressureIn,WindDirection,WindDirectionDegrees,WindSpeedMPH,WindSpeedGustMPH,Humidity,HourlyPrecipIn,Conditions,Clouds,dailyrainin,SoftwareType,DateUTC
2013-01-17 00:00:00,49.8,49.8,29.84,East,82,0.0,0.0,100,0.03,,---,0.11,VWS V14.01,2013-01-17 05:00:00,
2013-01-17 00:10:00,49.9,49.9,29.84,East,82,0.0,0.0,100,0.03,,---,0.00,VWS V14.01,2013-01-17 05:10:00,
2013-01-17 00:20:00,50.1,50.1,29.83,East,96,0.0,0.0,100,0.04,,---,0.01,VWS V14.01,2013-01-17 05:20:00,
2013-01-17 00:30:00,50.1,50.1,29.83,East,96,0.0,0.0,100,0.03,,---,0.01,VWS V14.01,2013-01-17 05:30:00,
2013-01-17 00:40:00,50.2,50.2,29.83,East,96,0.0,0.0,100,0.02,,---,0.01,VWS V14.01,2013-01-17 05:40:00,
2013-01-17 00:50:00,50.2,50.2,29.83,East,96,0.0,0.0,100,0.03,,---,0.02,VWS V14.01,2013-01-17 05:50:00,
2013-01-17 01:00:00,50.2,50.2,29.83,East,96,0.0,0.0,100,0.03,,---,0.03,VWS V14.01,2013-01-17 06:00:00,
2013-01-17 01:10:00,50.4,50.4,29.83,East,96,0.0,0.0,100,0.03,,---,0.03,VWS V14.01,2013-01-17 06:10:00,
2013-01-17 01:20:00,50.4,50.4,29.83,East,96,0.0,0.0,100,0.03,,---,0.03,VWS V14.01,2013-01-17 06:20:00,
2013-01-17 01:30:00,50.5,50.5,29.83,East,96,0.0,0.0,100,0.02,,---,0.03,VWS V14.01,2013-01-17 06:30:00,
2013-01-17 01:40:00,50.5,50.5,29.83,East,96,0.0,0.0,100,0.04,,---,0.05,VWS V14.01,2013-01-17 06:40:00,
2013-01-17 01:50:00,50.5,50.5,29.83,East,96,0.0,0.0,100,0.04,,---,0.05,VWS V14.01,2013-01-17 06:50:00,
2013-01-17 02:00:00,50.7,50.7,29.83,East,96,0.0,0.0,100,0.04,,---,0.06,VWS V14.01,2013-01-17 07:00:00,
2013-01-17 02:10:00,50.5,50.5,29.83,NNE,30,0.0,0.0,100,0.03,,---,0.06,VWS V14.01,2013-01-17 07:10:00,
2013-01-17 02:20:00,50.5,50.5,29.84,NNW,329,3.0,3.0,100,0.04,,---,0.07,VWS V14.01,2013-01-17 07:20:00,
2013-01-17 02:30:00,50.4,50.4,29.84,NW,312,0.0,3.0,100,0.04,,---,0.07,VWS V14.01,2013-01-17 07:30:00,
2013-01-17 02:40:00,50.4,50.4,29.84,NW,312,0.0,2.0,100,0.04,,---,0.07,VWS V14.01,2013-01-17 07:40:00,
2013-01-17 02:50:00,50.4,50.4,29.84,NW,312,0.0,0.0,100,0.03,,---,0.08,VWS V14.01,2013-01-17 07:50:00,
2013-01-17 03:00:00,50.2,50.2,29.83,NW,312,0.0,0.0,100,0.04,,---,0.09,VWS V14.01,2013-01-17 08:00:00,
2013-01-17 03:10:00,50.2,50.2,29.83,NW,312,0.0,0.0,100,0.04,,---,0.10,VWS V14.01,2013-01-17 08:10:00,
2013-01-17 03:20:00,50.2,50.2,29.83,NW,312,0.0,0.0,100,0.05,,---,0.11,VWS V14.01,2013-01-17 08:20:00,
2013-01-17 03:30:00,50.2,50.2,29.83,NW,312,0.0,0.0,100,0.04,,---,0.11,VWS V14.01,2013-01-17 08:30:00,
2013-01-17 03:40:00,50.1,50.1,29.83,NW,312,0.0,0.0,100,0.04,,---,0.11,VWS V14.01,2013-01-17 08:40:00,
2013-01-17 03:50:00,50.1,50.1,29.83,NW,312,0.0,0.0,100,0.05,,---,0.12,VWS V14.01,2013-01-17 08:50:00,
2013-01-17 04:00:00,50.2,50.2,29.82,NW,312,0.0,0.0,100,0.04,,---,0.12,VWS V14.01,2013-01-17 09:00:00,
2013-01-17 04:10:00,50.2,50.2,29.82,NW,312,0.0,0.0,100,0.03,,---,0.12,VWS V14.01,2013-01-17 09:10:00,
2013-01-17 04:20:00,50.2,50.2,29.81,NW,312,0.0,0.0,100,0.02,,---,0.12,VWS V14.01,2013-01-17 09:20:00,
2013-01-17 04:30:00,50.2,50.2,29.81,NW,312,0.0,0.0,100,0.01,,---,0.12,VWS V14.01,2013-01-17 09:30:00,
2013-01-17 04:40:00,50.2,50.2,29.81,NW,312,0.0,0.0,100,0.01,,---,0.12,VWS V14.01,2013-01-17 09:40:00,
2013-01-17 04:50:00,50.2,50.2,29.81,NW,312,0.0,0.0,100,0.01,,---,0.12,VWS V14.01,2013-01-17 09:50:00,
2013-01-17 05:00:00,50.2,50.2,29.82,NW,312,0.0,0.0,100,0.02,,---,0.14,VWS V14.01,2013-01-17 10:00:00,
2013-01-17 05:10:00,50.2,50.2,29.82,NW,305,2.0,5.0,100,0.03,,---,0.15,VWS V14.01,2013-01-17 10:10:00,
2013-01-17 05:20:00,50.1,50.1,29.83,North,353,0.0,5.0,100,0.05,,---,0.17,VWS V14.01,2013-01-17 10:20:00,
2013-01-17 05:30:00,49.9,49.9,29.83,NW,312,0.0,3.0,100,0.06,,---,0.18,VWS V14.01,2013-01-17 10:30:00,
2013-01-17 05:40:00,49.8,49.8,29.83,West,274,0.0,5.0,100,0.08,,---,0.20,VWS V14.01,2013-01-17 10:40:00,
2013-01-17 05:50:00,49.8,49.8,29.84,West,274,0.0,4.0,100,0.09,,---,0.21,VWS V14.01,2013-01-17 10:50:00,
2013-01-17 06:00:00,49.6,49.6,29.83,WNW,301,0.0,2.0,100,0.11,,---,0.23,VWS V14.01,2013-01-17 11:00:00,
2013-01-17 06:10:00,49.6,49.6,29.83,WNW,301,0.0,0.0,100,0.09,,---,0.23,VWS V14.01,2013-01-17 11:10:00,
2013-01-17 06:20:00,49.5,49.5,29.84,WNW,301,0.0,0.0,100,0.08,,---,0.23,VWS V14.01,2013-01-17 11:20:00,
2013-01-17 06:30:00,49.5,49.5,29.84,NNW,335,0.0,4.0,100,0.06,,---,0.23,VWS V14.01,2013-01-17 11:30:00,
2013-01-17 06:40:00,49.4,49.4,29.84,NW,316,0.0,3.0,100,0.05,,---,0.23,VWS V14.01,2013-01-17 11:40:00,
2013-01-17 06:50:00,49.4,49.4,29.86,NW,316,0.0,0.0,100,0.05,,---,0.25,VWS V14.01,2013-01-17 11:50:00,
2013-01-17 07:00:00,49.4,49.4,29.86,NW,316,0.0,0.0,100,0.04,,---,0.25,VWS V14.01,2013-01-17 12:00:00,
2013-01-17 07:10:00,49.2,49.2,29.86,NW,316,0.0,0.0,100,0.02,,---,0.25,VWS V14.01,2013-01-17 12:10:00,
2013-01-17 07:20:00,49.2,49.2,29.86,NW,318,0.0,0.0,100,0.03,,---,0.26,VWS V14.01,2013-01-17 12:20:00,
2013-01-17 07:30:00,49.2,49.2,29.86,NW,318,0.0,0.0,100,0.04,,---,0.27,VWS V14.01,2013-01-17 12:30:00,
2013-01-17 07:40:00,49.2,49.2,29.86,NW,318,0.0,0.0,100,0.04,,---,0.27,VWS V14.01,2013-01-17 12:40:00,
2013-01-17 07:50:00,49.2,49.2,29.86,NW,318,0.0,0.0,100,0.04,,---,0.27,VWS V14.01,2013-01-17 12:50:00,
2013-01-17 08:00:00,49.2,49.2,29.87,NW,318,0.0,0.0,100,0.02,,---,0.27,VWS V14.01,2013-01-17 13:00:00,
2013-01-17 08:10:00,49.2,49.2,29.87,NW,318,0.0,2.0,100,0.02,,---,0.27,VWS V14.01,2013-01-17 13:10:00,
2013-01-17 08:20:00,49.2,49.2,29.86,NW,318,0.0,0.0,100,0.03,,---,0.28,VWS V14.01,2013-01-17 13:20:00,
2013-01-17 08:30:00,49.4,49.4,29.88,NW,318,0.0,0.0,100,0.03,,---,0.29,VWS V14.01,2013-01-17 13:30:00,
2013-01-17 08:40:00,49.4,49.4,29.88,NW,318,0.0,0.0,100,0.02,,---,0.29,VWS V14.01,2013-01-17 13:40:00,
2013-01-17 08:50:00,49.5,49.5,29.88,NW,318,0.0,0.0,100,0.02,,---,0.29,VWS V14.01,2013-01-17 13:50:00,
2013-01-17 09:00:00,49.5,49.5,29.89,NW,305,3.0,3.0,100,0.03,,---,0.30,VWS V14.01,2013-01-17 14:00:00,
2013-01-17 09:10:00,49.4,49.4,29.89,NW,305,1.0,3.0,100,0.05,,---,0.32,VWS V14.01,2013-01-17 14:10:00,
2013-01-17 09:20:00,49.4,49.4,29.90,NW,305,0.0,1.0,100,0.06,,---,0.33,VWS V14.01,2013-01-17 14:20:00,
2013-01-17 09:30:00,49.5,49.5,29.89,NW,305,0.0,0.0,100,0.05,,---,0.33,VWS V14.01,2013-01-17 14:30:00,
2013-01-17 09:40:00,49.5,49.5,29.89,NW,305,0.0,0.0,100,0.04,,---,0.33,VWS V14.01,2013-01-17 14:40:00,
2013-01-17 09:50:00,49.6,49.6,29.89,NW,305,0.0,0.0,100,0.04,,---,0.33,VWS V14.01,2013-01-17 14:50:00,
2013-01-17 10:00:00,49.8,49.8,29.89,NW,305,0.0,0.0,100,0.05,,---,0.34,VWS V14.01,2013-01-17 15:00:00,
2013-01-17 10:10:00,49.8,49.8,29.89,WNW,302,0.0,2.0,100,0.04,,---,0.34,VWS V14.01,2013-01-17 15:10:00,
2013-01-17 10:20:00,49.8,49.8,29.89,WNW,302,0.0,0.0,100,0.02,,---,0.34,VWS V14.01,2013-01-17 15:20:00,
2013-01-17 10:30:00,49.8,49.8,29.88,NW,313,0.0,4.0,100,0.01,,---,0.34,VWS V14.01,2013-01-17 15:30:00,
2013-01-17 10:40:00,49.8,49.8,29.88,NNW,343,0.0,3.0,100,0.02,,---,0.35,VWS V14.01,2013-01-17 15:40:00,
2013-01-17 10:50:00,49.8,49.8,29.87,WNW,296,0.0,3.0,100,0.02,,---,0.35,VWS V14.01,2013-01-17 15:50:00,
2013-01-17 11:00:00,49.8,49.8,29.89,WNW,285,1.0,5.0,100,0.02,,---,0.35,VWS V14.01,2013-01-17 16:00:00,
2013-01-17 11:10:00,49.6,49.6,29.89,NNW,340,0.0,6.0,100,0.01,,---,0.35,VWS V14.01,2013-01-17 16:10:00,
2013-01-17 11:20:00,49.8,49.8,29.87,NNW,346,0.0,2.0,100,0.01,,---,0.35,VWS V14.01,2013-01-17 16:20:00,
2013-01-17 11:30:00,49.8,49.8,29.86,NNW,346,0.0,3.0,100,0.02,,---,0.36,VWS V14.01,2013-01-17 16:30:00,
2013-01-17 11:40:00,49.8,49.8,29.86,NNW,346,0.0,0.0,100,0.02,,---,0.36,VWS V14.01,2013-01-17 16:40:00,
2013-01-17 11:50:00,49.9,49.9,29.85,North,0,1.0,6.0,100,0.01,,---,0.36,VWS V14.01,2013-01-17 16:50:00,
2013-01-17 12:00:00,49.9,49.9,29.84,NNE,13,0.0,5.0,100,0.01,,---,0.36,VWS V14.01,2013-01-17 17:00:00,
2013-01-17 12:10:00,49.8,49.8,29.84,North,10,0.0,3.0,100,0.01,,---,0.36,VWS V14.01,2013-01-17 17:10:00,
2013-01-17 12:20:00,49.6,49.6,29.83,North,0,0.0,0.0,100,0.01,,---,0.36,VWS V14.01,2013-01-17 17:20:00,
2013-01-17 12:30:00,49.4,49.4,29.82,North,357,0.0,5.0,100,0.01,,---,0.36,VWS V14.01,2013-01-17 17:30:00,
2013-01-17 12:40:00,49.2,49.2,29.82,NNE,17,2.0,3.0,100,0.00,,---,0.36,VWS V14.01,2013-01-17 17:40:00,
2013-01-17 12:50:00,49.2,49.2,29.81,West,274,0.0,2.0,100,0.00,,---,0.36,VWS V14.01,2013-01-17 17:50:00,
2013-01-17 13:00:00,48.9,48.9,29.80,North,4,0.0,3.0,100,0.00,,---,0.36,VWS V14.01,2013-01-17 18:00:00,
2013-01-17 13:10:00,48.8,48.8,29.80,North,357,0.0,0.0,100,0.00,,---,0.36,VWS V14.01,2013-01-17 18:10:00,
2013-01-17 13:20:00,48.8,48.8,29.80,North,353,0.0,5.0,100,0.00,,---,0.36,VWS V14.01,2013-01-17 18:20:00,
2013-01-17 13:30:00,48.8,48.8,29.79,NW,312,0.0,3.0,100,0.00,,---,0.36,VWS V14.01,2013-01-17 18:30:00,
2013-01-17 13:40:00,48.6,48.6,29.79,NNW,347,0.0,5.0,100,0.00,,---,0.36,VWS V14.01,2013-01-17 18:40:00,
2013-01-17 13:50:00,48.6,48.6,29.78,North,349,0.0,5.0,100,0.00,,---,0.36,VWS V14.01,2013-01-17 18:50:00,
2013-01-17 14:00:00,48.8,48.8,29.78,North,0,0.0,3.0,100,0.00,,---,0.36,VWS V14.01,2013-01-17 19:00:00,
2013-01-17 14:10:00,48.8,48.8,29.78,North,349,0.0,0.0,100,0.00,,---,0.36,VWS V14.01,2013-01-17 19:10:00,
2013-01-17 14:20:00,48.8,48.8,29.77,North,0,0.0,5.0,100,0.00,,---,0.36,VWS V14.01,2013-01-17 19:20:00,
2013-01-17 14:30:00,48.8,48.8,29.77,WNW,287,0.0,0.0,100,0.01,,---,0.37,VWS V14.01,2013-01-17 19:30:00,
2013-01-17 14:40:00,48.9,48.9,29.77,NNE,14,0.0,3.0,100,0.01,,---,0.37,VWS V14.01,2013-01-17 19:40:00,
2013-01-17 14:50:00,48.9,48.9,29.76,NNE,14,0.0,0.0,100,0.01,,---,0.37,VWS V14.01,2013-01-17 19:50:00,
2013-01-17 15:00:00,48.6,48.6,29.75,North,0,1.0,7.0,100,0.01,,---,0.37,VWS V14.01,2013-01-17 20:00:00,
2013-01-17 15:10:00,48.6,48.6,29.75,North,0,0.0,3.0,100,0.01,,---,0.37,VWS V14.01,2013-01-17 20:10:00,
2013-01-17 15:20:00,48.3,48.3,29.76,North,350,0.0,5.0,100,0.01,,---,0.37,VWS V14.01,2013-01-17 20:20:00,
2013-01-17 15:30:00,47.7,47.7,29.77,North,0,2.0,11.0,100,0.01,,---,0.37,VWS V14.01,2013-01-17 20:30:00,
2013-01-17 15:40:00,47.3,47.3,29.77,North,359,5.0,6.0,100,0.00,,---,0.37,VWS V14.01,2013-01-17 20:40:00,
2013-01-17 15:50:00,47.0,47.0,29.77,North,0,0.0,6.0,100,0.00,,---,0.37,VWS V14.01,2013-01-17 20:50:00,
2013-01-17 16:00:00,46.5,46.5,29.78,North,0,1.0,7.0,100,0.00,,---,0.37,VWS V14.01,2013-01-17 21:00:00,
2013-01-17 16:10:00,46.4,46.4,29.78,North,1,0.0,6.0,100,0.00,,---,0.37,VWS V14.01,2013-01-17 21:10:00,
2013-01-17 16:20:00,46.1,46.1,29.77,NNE,17,7.0,10.0,100,0.00,,---,0.37,VWS V14.01,2013-01-17 21:20:00,
2013-01-17 16:30:00,46.0,46.0,29.77,North,349,2.0,7.0,100,0.00,,---,0.37,VWS V14.01,2013-01-17 21:30:00,
2013-01-17 16:40:00,45.5,45.5,29.77,North,353,3.0,6.0,100,0.00,,---,0.37,VWS V14.01,2013-01-17 21:40:00,
2013-01-17 16:50:00,44.6,44.6,29.78,North,8,4.0,10.0,100,0.02,,---,0.39,VWS V14.01,2013-01-17 21:50:00,
2013-01-17 17:00:00,44.1,44.1,29.78,NNW,340,5.0,8.0,100,0.03,,---,0.40,VWS V14.01,2013-01-17 22:00:00,
2013-01-17 17:10:00,43.9,43.9,29.78,North,10,0.0,7.0,100,0.03,,---,0.40,VWS V14.01,2013-01-17 22:10:00,
2013-01-17 17:20:00,43.8,43.8,29.79,North,10,4.0,9.0,100,0.03,,---,0.40,VWS V14.01,2013-01-17 22:20:00,
2013-01-17 17:30:00,43.3,43.3,29.79,North,8,0.0,7.0,100,0.03,,---,0.40,VWS V14.01,2013-01-17 22:30:00,
2013-01-17 17:40:00,43.1,43.1,29.79,North,0,3.0,7.0,100,0.03,,---,0.40,VWS V14.01,2013-01-17 22:40:00,
2013-01-17 17:50:00,42.6,42.6,29.78,North,357,0.0,8.0,100,0.04,,---,0.41,VWS V14.01,2013-01-17 22:50:00,
2013-01-17 18:00:00,42.6,42.6,29.80,North,352,0.0,5.0,100,0.02,,---,0.41,VWS V14.01,2013-01-17 23:00:00,
2013-01-17 18:10:00,42.3,42.3,29.80,North,0,6.0,6.0,100,0.03,,---,0.43,VWS V14.01,2013-01-17 23:10:00,
2013-01-17 18:20:00,42.3,42.3,29.80,North,350,5.0,6.0,100,0.05,,---,0.45,VWS V14.01,2013-01-17 23:20:00,
2013-01-17 18:30:00,42.1,42.1,29.83,NW,325,1.0,10.0,100,0.07,,---,0.47,VWS V14.01,2013-01-17 23:30:00,
2013-01-17 18:40:00,40.8,40.8,29.83,North,357,2.0,14.0,100,0.11,,---,0.51,VWS V14.01,2013-01-17 23:40:00,
2013-01-17 18:50:00,40.3,40.3,29.83,WNW,284,1.0,14.0,100,0.11,,---,0.51,VWS V14.01,2013-01-17 23:50:00,
2013-01-17 19:00:00,39.9,39.9,29.83,North,357,2.0,10.0,100,0.11,,---,0.52,VWS V14.01,2013-01-18 00:00:00,
2013-01-17 19:10:00,39.6,39.6,29.83,North,354,0.0,6.0,100,0.13,,---,0.54,VWS V14.01,2013-01-18 00:10:00,
2013-01-17 19:20:00,39.3,39.3,29.83,NNW,333,4.0,7.0,100,0.12,,---,0.55,VWS V14.01,2013-01-18 00:20:00,
2013-01-17 19:30:00,38.8,38.8,29.81,North,350,3.0,11.0,100,0.11,,---,0.56,VWS V14.01,2013-01-18 00:30:00,
2013-01-17 19:40:00,38.5,38.5,29.81,North,352,8.0,10.0,100,0.10,,---,0.57,VWS V14.01,2013-01-18 00:40:00,
2013-01-17 19:50:00,38.3,38.3,29.80,North,356,5.0,11.0,100,0.07,,---,0.58,VWS V14.01,2013-01-18 00:50:00,
2013-01-17 20:00:00,38.2,38.2,29.81,North,0,6.0,13.0,100,0.09,,---,0.60,VWS V14.01,2013-01-18 01:00:00,
2013-01-17 20:10:00,38.0,38.0,29.81,NW,319,1.0,11.0,100,0.10,,---,0.62,VWS V14.01,2013-01-18 01:10:00,
2013-01-17 20:20:00,38.0,38.0,29.80,NW,308,3.0,10.0,100,0.10,,---,0.64,VWS V14.01,2013-01-18 01:20:00,
2013-01-17 20:30:00,37.9,37.9,29.83,NW,312,7.0,13.0,100,0.11,,---,0.66,VWS V14.01,2013-01-18 01:30:00,
2013-01-17 20:40:00,37.2,37.2,29.83,NNE,21,7.0,12.0,100,0.13,,---,0.69,VWS V14.01,2013-01-18 01:40:00,
2013-01-17 20:50:00,36.3,36.3,29.85,NW,316,5.0,12.0,100,0.14,,---,0.71,VWS V14.01,2013-01-18 01:50:00,
2013-01-17 21:00:00,35.6,35.6,29.86,West,267,6.0,10.0,100,0.14,,---,0.72,VWS V14.01,2013-01-18 02:00:00,
2013-01-17 21:10:00,34.3,34.3,29.86,WNW,298,2.0,11.0,100,0.14,,---,0.74,VWS V14.01,2013-01-18 02:10:00,
2013-01-17 21:20:00,33.2,33.2,29.86,NW,316,1.0,7.0,100,0.12,,---,0.74,VWS V14.01,2013-01-18 02:20:00,
2013-01-17 21:30:00,32.7,32.7,29.86,NNW,333,0.0,5.0,100,0.10,,---,0.74,VWS V14.01,2013-01-18 02:30:00,
2013-01-17 21:40:00,32.5,32.5,29.86,WNW,294,0.0,2.0,100,0.08,,---,0.74,VWS V14.01,2013-01-18 02:40:00,
2013-01-17 21:50:00,32.5,32.5,29.89,WNW,287,0.0,2.0,100,0.05,,---,0.74,VWS V14.01,2013-01-18 02:50:00,
2013-01-17 22:00:00,32.4,32.4,29.90,WNW,287,0.0,0.0,100,0.03,,---,0.74,VWS V14.01,2013-01-18 03:00:00,
2013-01-17 22:10:00,32.4,32.4,29.90,WNW,288,0.0,2.0,100,0.02,,---,0.74,VWS V14.01,2013-01-18 03:10:00,
2013-01-17 22:20:00,32.4,32.4,29.90,WNW,295,0.0,0.0,100,0.00,,---,0.74,VWS V14.01,2013-01-18 03:20:00,
2013-01-17 22:30:00,32.4,32.4,29.88,NW,305,0.0,2.0,100,0.00,,---,0.74,VWS V14.01,2013-01-18 03:30:00,
2013-01-17 22:40:00,32.4,32.4,29.88,NW,305,0.0,0.0,100,0.01,,---,0.75,VWS V14.01,2013-01-18 03:40:00,
2013-01-17 22:50:00,32.4,32.4,29.90,NW,305,0.0,0.0,100,0.01,,---,0.75,VWS V14.01,2013-01-18 03:50:00,
2013-01-17 23:00:00,32.4,32.4,29.91,NW,306,0.0,0.0,100,0.02,,---,0.76,VWS V14.01,2013-01-18 04:00:00,
2013-01-17 23:10:00,32.5,32.5,29.91,WNW,295,0.0,2.0,100,0.02,,---,0.76,VWS V14.01,2013-01-18 04:10:00,
2013-01-17 23:20:00,32.7,32.7,29.93,WNW,295,0.0,0.0,100,0.02,,---,0.76,VWS V14.01,2013-01-18 04:20:00,
2013-01-17 23:30:00,32.7,32.7,29.94,WNW,295,0.0,0.0,100,0.02,,---,0.76,VWS V14.01,2013-01-18 04:30:00,
2013-01-17 23:40:00,32.7,32.7,29.94,WNW,295,0.0,0.0,100,0.02,,---,0.76,VWS V14.01,2013-01-18 04:40:00,
2013-01-17 23:50:00,32.8,32.8,29.97,WNW,295,0.0,0.0,100,0.02,,---,0.77,VWS V14.01,2013-01-18 04:50:00,